Aeroporto :
LOGIN :

Iscrizione | Disclaimer

   EN    FR    IT 

 










Sommario :    VFR   VFR Marginale   IFR   IFR Intensivo   IFR Molto Intensivo
Visibilità : 
Base nubi : 
>= 8 km
>= 3000ft
5 / 8 km
1000 / 3000 ft
1500m / 5 km
500 / 1000 ft
800 / 1500m
200 / 500 ft
< 800m
< 200 ft
Simboli :   Temporali  Nebbia  Neve Forte  Precipitazioni Forti  Vento > 20 kt
SIGMETs :   Varie  Temporali  Ghiacco  Turbolenza  Onda orograficha  Ceneri Vulcaniche






- Altitudine del aeroporto : 302 ft
- Codice IATA : CGN


EDDK - Cologne Bonn

ULTIMO METAR :
  • 052320Z AUTO 33004KT 300V020 9999 BKN022 BKN028 04/02 Q1040 NOSIG

METARs OBSOLETI :
  • 052250Z AUTO 35005KT 9999 FEW022 BKN029 03/01 Q1040 NOSIG
  • 052220Z AUTO 35006KT 9999 BKN030 05/02 Q1040 NOSIG
  • 052150Z AUTO 36005KT 330V040 9999 FEW023 OVC030 05/02 Q1040 NOSIG
  • 052120Z AUTO 36007KT 330V040 9999 SCT021 OVC027 05/02 Q1040 NOSIG

TAF TAF EDDK
Valido dal 06 a 00 ore il 07 a 06 ore UTC


052300Z 0600/0706 35004KT 9999 BKN025
PROB40
TEMPO 0606/0611 4000 BR BKN004
BECMG 0618/0620 09005KT



MetMap, La meteo Aeronautica in un colpo d'occhio ! - Copyright ORBIFLY Dicembre 2007 - Disclaimer

ORBIFLY MET'MAP TEAM :

Programmazione e sviluppo : Alexandra Zaïnal
Concezione : Baudouin d'Aumeries
Supporto tecnico e logistico : Manuel Goepfert
Aiuto : Marc-Olivier Méhu
Aiuto per la traduzione : Arnaldo La Scala




FONTI E CREDITI :

   NOAA